Time;durP1;ratioP1;P1;durP2;ratioP2;P2;SDS_P1;SDS_P2;PMS_P1;PMS_P2;Temp;Humidity;BMP_temperature;BMP_pressure;BME280_temperature;BME280_humidity;BME280_pressure;Samples;Min_cycle;Max_cycle;Signal;HPM_P1;HPM_P2
2022/08/27 00:01:57;;;;;;;12.40;3.90;;;;;;;29.00;36.21;100200.98;104611;1305;61607;-84
2022/08/27 00:04:22;;;;;;;13.10;3.80;;;;;;;29.00;36.23;100200.14;104784;1305;61331;-83
2022/08/27 00:06:49;;;;;;;9.80;3.90;;;;;;;29.00;36.47;100198.48;104650;1306;61282;-82
2022/08/27 00:09:15;;;;;;;16.60;4.10;;;;;;;29.00;36.26;100200.46;104771;1305;61353;-83
2022/08/27 00:11:41;;;;;;;10.70;4.10;;;;;;;29.00;36.35;100199.79;104652;1306;61262;-83
2022/08/27 00:14:07;;;;;;;12.30;3.70;;;;;;;29.00;36.70;100198.84;104591;1307;61401;-83
2022/08/27 00:16:32;;;;;;;13.10;4.20;;;;;;;29.00;36.10;100199.59;104562;1305;62102;-82
2022/08/27 00:18:58;;;;;;;10.00;4.10;;;;;;;28.99;36.31;100202.71;104630;1305;61365;-83
2022/08/27 00:21:24;;;;;;;11.60;3.90;;;;;;;29.00;36.35;100201.39;104642;1306;61346;-82
2022/08/27 00:23:50;;;;;;;12.60;3.90;;;;;;;28.99;36.46;100204.88;104657;1305;62522;-82
2022/08/27 00:26:15;;;;;;;11.70;4.00;;;;;;;28.99;36.48;100204.01;104613;1305;61368;-82
2022/08/27 00:28:41;;;;;;;11.70;4.30;;;;;;;28.99;36.47;100208.35;104647;1305;61416;-82
2022/08/27 00:31:07;;;;;;;12.40;4.50;;;;;;;28.99;36.23;100212.20;104644;1306;74751;-82
2022/08/27 00:33:33;;;;;;;13.80;4.10;;;;;;;28.99;36.49;100215.99;104619;1303;61250;-82
2022/08/27 00:35:59;;;;;;;14.70;4.50;;;;;;;28.99;36.45;100220.88;104624;1306;61281;-83
2022/08/27 00:38:25;;;;;;;13.10;4.60;;;;;;;28.99;36.30;100228.11;104626;1305;61304;-84
2022/08/27 00:40:51;;;;;;;12.20;4.20;;;;;;;28.99;36.52;100226.86;104523;1305;61309;-82
2022/08/27 00:43:50;;;;;;;8.70;3.60;;;;;;;28.99;36.62;100227.07;104631;1307;61296;-82
2022/08/27 00:46:46;;;;;;;12.00;4.10;;;;;;;28.98;36.66;100227.52;104735;1305;61164;-80
2022/08/27 00:49:17;;;;;;;12.90;4.00;;;;;;;28.98;36.41;100229.89;104673;1305;73137;-83
2022/08/27 00:51:43;;;;;;;11.00;3.90;;;;;;;28.98;36.40;100230.40;104754;1305;74685;-81
2022/08/27 00:54:09;;;;;;;13.10;3.90;;;;;;;28.98;36.62;100234.17;104806;1305;61204;-80
2022/08/27 00:56:43;;;;;;;11.00;3.80;;;;;;;28.99;36.51;100228.70;104661;1305;61845;-82
2022/08/27 00:59:11;;;;;;;11.30;4.20;;;;;;;28.99;36.49;100227.11;104660;1305;72848;-82
2022/08/27 01:02:17;;;;;;;12.80;3.80;;;;;;;28.98;36.27;100221.67;104910;1305;74858;-82
2022/08/27 01:04:22;;;;;;;13.00;3.80;;;;;;;28.98;36.51;100221.19;104665;1306;61055;-82
2022/08/27 01:06:48;;;;;;;12.80;4.40;;;;;;;28.98;36.59;100218.08;104864;1304;61269;-82
2022/08/27 01:09:14;;;;;;;10.80;4.20;;;;;;;28.98;36.46;100217.93;104641;1305;61273;-82
2022/08/27 01:11:39;;;;;;;9.30;3.70;;;;;;;28.98;36.72;100214.81;104640;1306;61312;-82
2022/08/27 01:14:05;;;;;;;13.90;3.80;;;;;;;28.98;36.57;100218.41;104623;1306;61315;-80
2022/08/27 01:16:36;;;;;;;9.40;3.70;;;;;;;28.98;36.68;100219.90;104566;1306;61358;-82
2022/08/27 01:19:05;;;;;;;13.20;4.40;;;;;;;28.98;36.61;100222.80;104802;1305;61627;-82
2022/08/27 01:21:41;;;;;;;12.80;4.30;;;;;;;28.98;36.58;100226.25;104749;1305;74010;-82
2022/08/27 01:24:25;;;;;;;15.90;4.20;;;;;;;28.98;36.67;100222.08;104574;1305;76708;-82
2022/08/27 01:26:52;;;;;;;11.50;3.80;;;;;;;28.97;36.50;100224.15;104809;1305;61612;-82
2022/08/27 01:29:18;;;;;;;10.60;4.20;;;;;;;28.98;36.53;100224.66;104643;1305;61609;-82
2022/08/27 01:31:43;;;;;;;10.80;4.20;;;;;;;28.98;36.63;100223.79;104861;1305;61343;-82
2022/08/27 01:34:09;;;;;;;12.70;4.00;;;;;;;28.97;36.67;100225.11;104538;1307;62207;-82
2022/08/27 01:36:35;;;;;;;12.60;3.90;;;;;;;28.97;36.53;100219.64;104512;1308;61531;-82
2022/08/27 01:39:01;;;;;;;11.70;3.90;;;;;;;28.97;36.59;100221.67;104771;1305;61271;-82
2022/08/27 01:41:27;;;;;;;12.50;4.00;;;;;;;28.97;36.59;100228.53;104874;1305;61363;-83
2022/08/27 01:43:53;;;;;;;11.20;4.10;;;;;;;28.97;36.45;100225.68;104768;1305;73703;-82
2022/08/27 01:46:22;;;;;;;10.60;4.00;;;;;;;28.97;36.63;100227.27;104846;1305;61317;-83
2022/08/27 01:48:48;;;;;;;10.60;4.00;;;;;;;28.96;36.62;100230.40;104643;1305;61788;-82
2022/08/27 01:51:13;;;;;;;11.10;3.90;;;;;;;28.97;36.74;100229.99;104770;1305;61304;-82
2022/08/27 01:53:39;;;;;;;14.20;4.30;;;;;;;28.97;36.86;100228.95;104645;1305;61443;-83
2022/08/27 01:56:05;;;;;;;13.10;3.90;;;;;;;28.96;36.84;100225.92;104725;1305;61266;-83
2022/08/27 01:58:31;;;;;;;9.80;3.60;;;;;;;28.96;36.78;100227.93;104659;1305;61251;-82
2022/08/27 02:01:03;;;;;;;14.20;4.20;;;;;;;28.96;36.80;100230.48;104649;1305;61220;-84
2022/08/27 02:03:30;;;;;;;9.00;3.90;;;;;;;28.96;36.83;100231.94;104758;1305;61199;-82
2022/08/27 02:05:55;;;;;;;12.80;4.70;;;;;;;28.96;36.65;100230.85;104729;1303;61284;-83
2022/08/27 02:08:21;;;;;;;12.40;4.00;;;;;;;28.95;36.61;100231.27;104745;1305;61276;-82
2022/08/27 02:10:47;;;;;;;11.40;3.90;;;;;;;28.96;36.64;100227.08;104636;1305;61327;-82
2022/08/27 02:13:13;;;;;;;16.30;4.30;;;;;;;28.95;36.99;100228.91;104770;1305;61410;-83
2022/08/27 02:15:40;;;;;;;11.90;4.00;;;;;;;28.95;36.99;100226.73;104754;1305;61259;-83
2022/08/27 02:18:06;;;;;;;14.80;4.30;;;;;;;28.95;36.61;100227.08;104533;1305;61387;-83
2022/08/27 02:20:33;;;;;;;11.90;4.10;;;;;;;28.95;36.84;100225.32;104782;1305;61297;-83
2022/08/27 02:22:59;;;;;;;10.70;4.30;;;;;;;28.95;36.82;100222.05;104648;1305;61213;-83
2022/08/27 02:25:25;;;;;;;11.80;4.10;;;;;;;28.95;36.75;100224.44;104634;1305;61747;-85
2022/08/27 02:27:51;;;;;;;13.40;3.80;;;;;;;28.95;36.74;100220.80;104601;1305;61410;-83
2022/08/27 02:30:19;;;;;;;13.10;3.90;;;;;;;28.95;36.86;100220.80;104858;1305;61295;-82
2022/08/27 02:32:46;;;;;;;14.40;4.00;;;;;;;28.95;37.03;100222.09;104553;1305;61791;-82
2022/08/27 02:35:16;;;;;;;12.00;4.50;;;;;;;28.95;36.94;100222.64;104886;1305;61484;-82
2022/08/27 02:37:42;;;;;;;10.80;4.10;;;;;;;28.94;36.95;100218.70;104581;1305;72916;-84
2022/08/27 02:40:09;;;;;;;12.80;4.40;;;;;;;28.95;36.98;100224.81;104745;1305;61378;-84
2022/08/27 02:42:34;;;;;;;10.20;3.80;;;;;;;28.95;36.84;100224.80;104525;1306;61348;-83
2022/08/27 02:45:00;;;;;;;11.00;3.60;;;;;;;28.94;36.86;100216.52;104877;1305;60395;-83
2022/08/27 02:47:25;;;;;;;8.70;4.00;;;;;;;28.93;36.97;100217.70;104775;1305;81934;-83
2022/08/27 02:49:51;;;;;;;10.50;4.20;;;;;;;28.94;36.95;100217.45;104441;1307;61302;-82
2022/08/27 02:52:17;;;;;;;12.80;3.90;;;;;;;28.93;36.80;100217.85;104543;1305;61299;-83
2022/08/27 02:54:42;;;;;;;9.60;4.00;;;;;;;28.93;36.67;100217.67;104896;1305;61314;-83
2022/08/27 02:57:08;;;;;;;12.90;4.00;;;;;;;28.93;36.94;100217.34;104569;1305;61266;-82
2022/08/27 02:59:34;;;;;;;12.80;4.00;;;;;;;28.94;36.99;100221.23;104654;1305;61964;-83
2022/08/27 03:02:00;;;;;;;9.70;3.60;;;;;;;28.93;36.85;100221.14;104652;1305;61292;-82
2022/08/27 03:04:26;;;;;;;9.70;3.70;;;;;;;28.92;36.93;100218.67;104670;1305;61214;-82
2022/08/27 03:06:53;;;;;;;14.70;4.10;;;;;;;28.93;36.84;100219.86;103363;1305;1773905;-83
2022/08/27 03:09:19;;;;;;;11.20;3.90;;;;;;;28.94;36.90;100217.67;104744;1305;61307;-83
2022/08/27 03:11:44;;;;;;;11.50;3.60;;;;;;;28.93;36.95;100218.98;104760;1304;61324;-82
2022/08/27 03:14:11;;;;;;;14.50;4.40;;;;;;;28.93;37.13;100217.55;104619;1305;61330;-81
2022/08/27 03:16:37;;;;;;;15.10;4.10;;;;;;;28.93;37.11;100217.76;104843;1305;61202;-84
2022/08/27 03:19:06;;;;;;;13.60;4.50;;;;;;;28.93;37.10;100218.84;104689;1305;61280;-83
2022/08/27 03:21:32;;;;;;;10.10;3.90;;;;;;;28.92;36.77;100219.24;104660;1305;72802;-81
2022/08/27 03:24:00;;;;;;;13.10;4.30;;;;;;;28.92;37.25;100223.23;104665;1305;61314;-81
2022/08/27 03:26:27;;;;;;;9.90;3.70;;;;;;;28.92;37.25;100226.64;104675;1305;61268;-82
2022/08/27 03:28:53;;;;;;;10.20;4.00;;;;;;;28.92;36.96;100228.68;104769;1305;60779;-82
2022/08/27 03:31:25;;;;;;;13.70;4.50;;;;;;;28.92;37.07;100231.06;104647;1305;61385;-83
2022/08/27 03:34:01;;;;;;;11.80;3.90;;;;;;;28.92;37.21;100233.61;104595;1305;75731;-81
2022/08/27 03:36:28;;;;;;;11.10;4.10;;;;;;;28.92;36.98;100237.20;104780;1305;61257;-83
2022/08/27 03:38:54;;;;;;;12.70;3.90;;;;;;;28.92;36.96;100241.05;104750;1304;61439;-83
2022/08/27 03:41:21;;;;;;;10.80;3.70;;;;;;;28.91;37.03;100240.34;104667;1305;61190;-83
2022/08/27 03:43:46;;;;;;;9.40;3.90;;;;;;;28.92;36.95;100240.48;104646;1305;61312;-82
2022/08/27 03:46:12;;;;;;;8.90;3.70;;;;;;;28.92;36.91;100239.77;104662;1305;61412;-83
2022/08/27 03:48:38;;;;;;;9.30;3.70;;;;;;;28.92;36.92;100238.85;104652;1305;61265;-84
2022/08/27 03:51:09;;;;;;;9.70;3.80;;;;;;;28.91;37.19;100239.63;104666;1305;61746;-84
2022/08/27 03:53:36;;;;;;;10.80;3.80;;;;;;;28.92;37.14;100241.73;104619;1305;76788;-82
2022/08/27 03:56:03;;;;;;;8.00;3.70;;;;;;;28.92;37.15;100243.35;104816;1305;61317;-82
2022/08/27 03:58:29;;;;;;;11.20;4.10;;;;;;;28.92;37.25;100240.30;104656;1305;61340;-82
2022/08/27 04:00:54;;;;;;;11.60;4.30;;;;;;;28.92;37.01;100242.52;104614;1306;61356;-82
2022/08/27 04:03:20;;;;;;;10.60;3.90;;;;;;;28.92;36.94;100241.92;104832;1303;61397;-84
2022/08/27 04:05:51;;;;;;;12.50;4.40;;;;;;;28.92;36.94;100246.61;104625;1305;61269;-83
2022/08/27 04:08:16;;;;;;;10.60;4.20;;;;;;;28.92;37.09;100250.83;104702;1305;61301;-82
2022/08/27 04:10:42;;;;;;;10.80;3.80;;;;;;;28.92;37.11;100248.41;104635;1305;59320;-84
2022/08/27 04:13:07;;;;;;;14.30;4.30;;;;;;;28.92;36.93;100251.50;104523;1305;61283;-83
2022/08/27 04:15:33;;;;;;;11.10;4.10;;;;;;;28.92;36.89;100254.02;104695;1305;61252;-83
2022/08/27 04:17:59;;;;;;;10.60;4.10;;;;;;;28.92;37.19;100252.73;104668;1308;61280;-82
2022/08/27 04:20:25;;;;;;;12.10;4.20;;;;;;;28.93;36.97;100253.81;104635;1305;61553;-82
2022/08/27 04:22:50;;;;;;;9.60;4.20;;;;;;;28.93;37.26;100252.16;104788;1305;61373;-84
2022/08/27 04:25:16;;;;;;;10.90;4.10;;;;;;;28.92;37.16;100250.19;104461;1308;61448;-84
2022/08/27 04:27:42;;;;;;;10.00;3.90;;;;;;;28.93;37.06;100250.02;104545;1308;61436;-83
2022/08/27 04:30:09;;;;;;;11.40;4.10;;;;;;;28.92;36.90;100252.73;104747;1305;61255;-82
2022/08/27 04:32:35;;;;;;;13.70;4.00;;;;;;;28.93;36.87;100254.45;104518;1305;61312;-84
2022/08/27 04:35:01;;;;;;;12.20;4.30;;;;;;;28.93;37.09;100256.13;104618;1305;61356;-84
2022/08/27 04:37:33;;;;;;;12.60;4.20;;;;;;;28.93;37.02;100254.63;104638;1305;62587;-83
2022/08/27 04:39:59;;;;;;;12.40;4.00;;;;;;;28.94;37.04;100255.34;104673;1305;60482;-82
2022/08/27 04:42:24;;;;;;;10.80;3.80;;;;;;;28.93;36.83;100255.04;104610;1305;61378;-83
2022/08/27 04:44:52;;;;;;;10.30;4.20;;;;;;;28.93;36.83;100253.74;104745;1305;61282;-82
2022/08/27 04:47:19;;;;;;;10.30;4.10;;;;;;;28.94;37.36;100257.14;104598;1307;61261;-82
2022/08/27 04:49:44;;;;;;;10.30;4.10;;;;;;;28.93;37.16;100259.73;104580;1308;61340;-82
2022/08/27 04:52:10;;;;;;;10.50;3.90;;;;;;;28.93;37.07;100261.33;104582;1307;61305;-84
2022/08/27 04:54:35;;;;;;;11.20;3.80;;;;;;;28.93;37.27;100259.15;104609;1306;61421;-83
2022/08/27 04:57:02;;;;;;;12.40;4.00;;;;;;;28.93;37.25;100261.15;104621;1305;61406;-82
2022/08/27 04:59:27;;;;;;;11.80;4.30;;;;;;;28.94;37.20;100264.39;104534;1305;61265;-83
2022/08/27 05:01:53;;;;;;;8.70;3.80;;;;;;;28.94;37.36;100266.35;104773;1305;61262;-83
2022/08/27 05:04:18;;;;;;;10.40;4.50;;;;;;;28.94;37.17;100268.01;104506;1305;71598;-83
2022/08/27 05:06:44;;;;;;;10.70;4.00;;;;;;;28.93;37.08;100270.23;104580;1305;61366;-83
2022/08/27 05:09:12;;;;;;;10.20;4.10;;;;;;;28.93;37.25;100269.67;104620;1308;61270;-83
2022/08/27 05:11:38;;;;;;;13.60;4.20;;;;;;;28.93;37.05;100272.23;104539;1305;61176;-83
2022/08/27 05:14:08;;;;;;;12.10;4.30;;;;;;;28.94;37.29;100268.35;104488;1305;61295;-82
2022/08/27 05:16:37;;;;;;;8.90;3.90;;;;;;;28.94;37.28;100273.38;104746;1304;75688;-83
2022/08/27 05:19:04;;;;;;;12.40;4.10;;;;;;;28.94;36.93;100270.52;104645;1305;61266;-84
2022/08/27 05:21:31;;;;;;;10.10;4.00;;;;;;;28.94;37.36;100271.04;104634;1305;61161;-83
2022/08/27 05:23:58;;;;;;;10.40;4.80;;;;;;;28.94;37.02;100267.64;104746;1305;71927;-84
2022/08/27 05:26:24;;;;;;;9.10;3.90;;;;;;;28.94;37.36;100269.77;104708;1305;75250;-84
2022/08/27 05:28:50;;;;;;;11.90;4.40;;;;;;;28.95;37.12;100271.33;104739;1305;61179;-83
2022/08/27 05:31:17;;;;;;;11.20;4.30;;;;;;;28.94;37.24;100275.55;104759;1304;61307;-84
2022/08/27 05:33:43;;;;;;;13.40;4.20;;;;;;;28.95;37.03;100277.81;104646;1305;59321;-82
2022/08/27 05:36:29;;;;;;;9.80;3.90;;;;;;;28.95;37.25;100279.81;104655;1305;61119;-83
2022/08/27 05:38:56;;;;;;;11.50;4.00;;;;;;;28.96;37.27;100279.92;104826;1305;61148;-83
2022/08/27 05:41:26;;;;;;;15.30;4.20;;;;;;;28.96;37.41;100280.05;104844;1305;61199;-83
2022/08/27 05:43:52;;;;;;;12.20;4.40;;;;;;;28.96;37.13;100278.63;104850;1305;72766;-82
2022/08/27 05:46:21;;;;;;;10.00;3.70;;;;;;;28.97;37.50;100280.35;104631;1305;74765;-83
2022/08/27 05:48:47;;;;;;;10.30;4.10;;;;;;;28.97;37.41;100278.69;104788;1305;61158;-83
2022/08/27 05:51:20;;;;;;;12.40;4.10;;;;;;;28.97;37.66;100277.73;104651;1305;61353;-83
2022/08/27 05:53:46;;;;;;;10.60;3.80;;;;;;;28.98;37.48;100279.14;104848;1305;72750;-82
2022/08/27 05:56:19;;;;;;;12.00;4.50;;;;;;;28.98;37.67;100276.92;104639;1305;61276;-82
2022/08/27 06:01:36;;;;;;;14.60;4.00;;;;;;;28.98;37.96;100276.21;104509;1305;61332;-82
2022/08/27 06:04:03;;;;;;;10.10;3.90;;;;;;;28.99;37.51;100277.03;104856;1304;72728;-83
2022/08/27 06:06:28;;;;;;;10.80;4.00;;;;;;;28.99;37.64;100274.27;104592;1305;76811;-83
2022/08/27 06:08:55;;;;;;;12.30;4.30;;;;;;;29.00;37.71;100279.13;104653;1305;61168;-83
2022/08/27 06:11:21;;;;;;;10.40;3.80;;;;;;;29.00;37.99;100279.23;104697;1305;61262;-83
2022/08/27 06:13:47;;;;;;;12.80;4.60;;;;;;;29.00;38.06;100277.61;104588;1305;61309;-83
2022/08/27 06:16:15;;;;;;;9.10;3.90;;;;;;;29.01;37.80;100278.10;104573;1305;61322;-83
2022/08/27 06:18:45;;;;;;;12.80;4.50;;;;;;;29.02;37.84;100282.36;104749;1305;61289;-82
2022/08/27 06:21:11;;;;;;;12.30;4.10;;;;;;;29.02;37.87;100282.36;104672;1305;62352;-83
2022/08/27 06:23:36;;;;;;;12.80;4.10;;;;;;;29.01;38.00;100285.06;104608;1305;61961;-83
2022/08/27 06:26:05;;;;;;;12.40;4.00;;;;;;;29.02;37.98;100285.40;104635;1305;61878;-82
2022/08/27 06:28:31;;;;;;;;;;;;;;;29.01;37.90;100291.05;104838;1305;61149;-85
2022/08/27 06:31:07;;;;;;;12.40;4.40;;;;;;;29.00;37.99;100293.21;104766;1304;61335;-84
2022/08/27 06:33:33;;;;;;;10.80;3.90;;;;;;;29.01;38.05;100293.66;104744;1305;72810;-86
2022/08/27 06:36:04;;;;;;;10.50;4.00;;;;;;;29.01;38.07;100294.71;104671;1305;61282;-83
2022/08/27 06:38:30;;;;;;;10.00;4.10;;;;;;;29.01;38.08;100293.80;104657;1305;61837;-82
2022/08/27 06:40:57;;;;;;;13.20;4.30;;;;;;;29.01;37.97;100296.10;104648;1305;61298;-83
2022/08/27 06:43:24;;;;;;;12.90;4.10;;;;;;;29.02;37.94;100298.94;104662;1305;61256;-82
2022/08/27 06:45:49;;;;;;;13.90;4.20;;;;;;;29.03;38.21;100302.45;104762;1305;61294;-82
2022/08/27 06:48:15;;;;;;;10.80;4.10;;;;;;;29.03;38.09;100304.26;104758;1305;61329;-80
2022/08/27 06:50:41;;;;;;;11.40;4.00;;;;;;;29.03;38.10;100308.57;104765;1305;61258;-82
2022/08/27 06:53:07;;;;;;;10.10;4.80;;;;;;;29.04;38.07;100306.70;104639;1305;61388;-82
2022/08/27 06:55:42;;;;;;;9.70;4.00;;;;;;;29.05;38.06;100311.10;104865;1305;61284;-85
2022/08/27 06:58:08;;;;;;;12.80;4.20;;;;;;;29.05;38.28;100311.61;104808;1305;61429;-82
2022/08/27 07:00:34;;;;;;;12.70;4.20;;;;;;;29.05;38.11;100316.67;104702;1305;62451;-84
2022/08/27 07:03:00;;;;;;;14.20;4.10;;;;;;;29.06;38.39;100319.12;104763;1305;61257;-83
2022/08/27 07:05:26;;;;;;;13.30;4.60;;;;;;;29.07;38.18;100322.52;104852;1305;61298;-82
2022/08/27 07:07:52;;;;;;;13.10;4.50;;;;;;;29.08;38.19;100324.77;104636;1305;61431;-82
2022/08/27 07:10:17;;;;;;;11.90;4.10;;;;;;;29.08;38.28;100327.27;104767;1305;61211;-82
2022/08/27 07:12:43;;;;;;;12.70;4.40;;;;;;;29.08;38.38;100329.95;104686;1305;61394;-83
2022/08/27 07:15:09;;;;;;;10.40;4.20;;;;;;;29.09;38.05;100333.15;104656;1305;59986;-83
2022/08/27 07:17:35;;;;;;;11.90;4.50;;;;;;;29.09;38.12;100335.84;104868;1305;61313;-84
2022/08/27 07:20:00;;;;;;;8.90;4.30;;;;;;;29.09;38.38;100336.02;104763;1304;61310;-82
2022/08/27 07:22:27;;;;;;;15.60;4.50;;;;;;;29.09;38.07;100333.86;104850;1305;61419;-83
2022/08/27 07:24:53;;;;;;;12.10;4.30;;;;;;;29.09;38.29;100337.80;104646;1305;61260;-82
2022/08/27 07:27:20;;;;;;;13.00;4.70;;;;;;;29.09;38.27;100336.17;104642;1305;61503;-83
2022/08/27 07:29:47;;;;;;;12.20;4.40;;;;;;;29.09;38.35;100337.42;104541;1305;61336;-83
2022/08/27 07:32:12;;;;;;;12.10;4.20;;;;;;;29.10;38.29;100338.31;104841;1305;61323;-82
2022/08/27 07:34:38;;;;;;;11.60;4.20;;;;;;;29.09;38.20;100334.73;104623;1305;61338;-84
2022/08/27 07:37:03;;;;;;;11.70;4.60;;;;;;;29.10;38.28;100338.64;104662;1305;61385;-83
2022/08/27 07:39:29;;;;;;;14.10;4.70;;;;;;;29.09;38.08;100336.13;104563;1305;61396;-82
2022/08/27 07:44:40;;;;;;;11.30;4.30;;;;;;;29.10;38.32;100338.77;104683;1305;61170;-83
2022/08/27 07:47:06;;;;;;;10.50;4.00;;;;;;;29.11;38.10;100337.28;104882;1305;61319;-83
2022/08/27 07:49:34;;;;;;;13.20;4.30;;;;;;;29.12;38.23;100342.82;104756;1305;61324;-83
2022/08/27 07:52:01;;;;;;;10.10;4.10;;;;;;;29.11;38.19;100341.92;104828;1305;61261;-83
2022/08/27 07:54:26;;;;;;;13.10;4.30;;;;;;;29.12;38.31;100342.95;104674;1305;61183;-82
2022/08/27 07:56:53;;;;;;;11.80;4.20;;;;;;;29.12;38.26;100338.73;104779;1303;61758;-82
2022/08/27 07:59:19;;;;;;;10.50;4.00;;;;;;;29.13;38.17;100336.49;104779;1305;61153;-84
2022/08/27 08:01:44;;;;;;;14.90;4.40;;;;;;;29.14;38.28;100335.17;104625;1305;61173;-83
2022/08/27 08:04:10;;;;;;;14.80;4.40;;;;;;;29.14;38.29;100333.13;104645;1305;61323;-82
2022/08/27 08:06:39;;;;;;;9.00;3.90;;;;;;;29.15;38.19;100330.34;104846;1305;61414;-82
2022/08/27 08:09:05;;;;;;;11.70;4.50;;;;;;;29.14;38.03;100331.25;104761;1305;61225;-83
2022/08/27 08:11:32;;;;;;;10.70;4.30;;;;;;;29.15;38.22;100329.80;104486;1308;61366;-83
2022/08/27 08:13:59;;;;;;;11.80;4.50;;;;;;;29.15;38.29;100333.36;104660;1305;61641;-82
2022/08/27 08:16:24;;;;;;;11.80;4.60;;;;;;;29.15;38.17;100335.36;104630;1305;61279;-82
2022/08/27 08:18:50;;;;;;;13.60;4.90;;;;;;;29.15;38.19;100331.19;104650;1304;61309;-83
2022/08/27 08:21:16;;;;;;;11.00;4.90;;;;;;;29.15;38.29;100327.90;104667;1305;61251;-82
2022/08/27 08:23:41;;;;;;;11.60;4.60;;;;;;;29.16;38.09;100332.91;104657;1305;61312;-82
2022/08/27 08:26:08;;;;;;;10.80;4.20;;;;;;;29.16;38.21;100330.58;104662;1305;61271;-83
2022/08/27 08:28:35;;;;;;;16.20;5.00;;;;;;;29.16;37.94;100330.58;104582;1305;73272;-82
2022/08/27 08:31:01;;;;;;;10.30;4.00;;;;;;;29.16;38.04;100329.79;104655;1305;74810;-83
2022/08/27 08:33:26;;;;;;;8.80;4.10;;;;;;;29.16;38.06;100328.14;104744;1304;61248;-83
2022/08/27 08:35:52;;;;;;;11.50;4.40;;;;;;;29.16;38.19;100323.78;104746;1305;61376;-84
2022/08/27 08:38:18;;;;;;;12.60;4.10;;;;;;;29.17;38.13;100324.63;104633;1306;61300;-80
2022/08/27 08:40:56;;;;;;;11.80;4.50;;;;;;;29.16;38.06;100327.21;104770;1305;74236;-82
2022/08/27 08:43:32;;;;;;;12.50;4.60;;;;;;;29.17;38.05;100326.98;104646;1305;61289;-84
2022/08/27 08:46:02;;;;;;;11.30;4.10;;;;;;;29.17;38.20;100327.89;104769;1304;61243;-83
2022/08/27 08:48:28;;;;;;;11.80;4.30;;;;;;;29.17;38.13;100327.48;104632;1305;72863;-83
2022/08/27 08:51:03;;;;;;;10.80;4.00;;;;;;;29.17;37.98;100326.77;104649;1305;61337;-83
2022/08/27 08:53:35;;;;;;;11.30;4.60;;;;;;;29.17;38.13;100328.02;104613;1305;61162;-83
2022/08/27 08:56:04;;;;;;;12.50;4.20;;;;;;;29.18;38.04;100324.00;104857;1305;61383;-82
2022/08/27 08:58:38;;;;;;;14.10;4.60;;;;;;;29.18;37.82;100323.27;104655;1303;73126;-82
2022/08/27 09:01:06;;;;;;;10.80;3.90;;;;;;;29.18;37.80;100323.94;104813;1304;75886;-82
2022/08/27 09:03:34;;;;;;;13.00;4.40;;;;;;;29.18;37.98;100328.13;104533;1305;61504;-84
2022/08/27 09:06:09;;;;;;;12.70;4.40;;;;;;;29.18;37.93;100325.90;104773;1305;61183;-83
2022/08/27 09:08:36;;;;;;;11.90;3.90;;;;;;;29.18;37.80;100321.39;104817;1305;73383;-82
2022/08/27 09:11:12;;;;;;;16.90;4.60;;;;;;;29.19;37.98;100319.52;104638;1305;75826;-82
2022/08/27 09:13:52;;;;;;;15.60;4.60;;;;;;;29.19;37.97;100319.52;104743;1305;61481;-82
2022/08/27 09:16:17;;;;;;;10.60;4.30;;;;;;;29.19;37.90;100320.23;104640;1305;61251;-83
2022/08/27 09:18:44;;;;;;;13.30;4.40;;;;;;;29.19;38.09;100320.20;104718;1305;60001;-80
2022/08/27 09:21:29;;;;;;;13.00;4.40;;;;;;;29.19;37.93;100316.63;104626;1305;61164;-82
2022/08/27 09:23:56;;;;;;;11.00;4.30;;;;;;;29.19;37.98;100320.53;104632;1306;61194;-82
2022/08/27 09:26:24;;;;;;;14.50;4.50;;;;;;;29.19;38.10;100320.20;104644;1305;61399;-81
2022/08/27 09:32:02;;;;;;;10.90;4.30;;;;;;;29.18;37.96;100317.17;104600;1308;74868;-83
2022/08/27 09:34:37;;;;;;;11.80;4.10;;;;;;;29.19;37.74;100316.39;104740;1305;61184;-82
2022/08/27 09:37:14;;;;;;;13.10;4.40;;;;;;;29.19;37.88;100316.80;104597;1308;61183;-82
2022/08/27 09:39:44;;;;;;;12.60;4.40;;;;;;;29.19;37.93;100319.83;104510;1308;73523;-81
2022/08/27 09:42:28;;;;;;;11.60;4.10;;;;;;;29.19;37.99;100313.14;104730;1305;75339;-82
2022/08/27 09:44:54;;;;;;;14.30;4.30;;;;;;;29.19;37.91;100317.98;104548;1305;61282;-81
2022/08/27 09:47:20;;;;;;;11.70;4.10;;;;;;;29.19;37.93;100317.28;104731;1305;61314;-83
2022/08/27 09:49:46;;;;;;;13.00;4.30;;;;;;;29.19;37.72;100312.80;104575;1306;61325;-82
2022/08/27 09:52:29;;;;;;;11.30;4.10;;;;;;;29.19;37.79;100315.10;104759;1304;61259;-80
2022/08/27 09:54:55;;;;;;;9.90;3.80;;;;;;;29.20;37.91;100314.70;104501;1308;61606;-84
2022/08/27 09:57:40;;;;;;;10.00;3.70;;;;;;;29.20;37.73;100314.70;104596;1305;61270;-81
2022/08/27 10:00:09;;;;;;;13.90;4.50;;;;;;;29.20;37.79;100315.04;104776;1304;73995;-80
2022/08/27 10:02:35;;;;;;;9.00;3.80;;;;;;;29.20;38.11;100317.58;104566;1305;74005;-82
2022/08/27 10:05:20;;;;;;;8.30;3.80;;;;;;;29.20;38.06;100316.80;104611;1308;61252;-83
2022/08/27 10:07:52;;;;;;;10.00;4.10;;;;;;;29.21;37.95;100314.77;104617;1305;61417;-82
2022/08/27 10:10:43;;;;;;;12.30;4.10;;;;;;;29.21;37.76;100308.40;104790;1305;73959;-82
2022/08/27 10:13:22;;;;;;;8.10;4.10;;;;;;;29.21;38.06;100311.33;104502;1308;75799;-81
2022/08/27 10:16:10;;;;;;;11.30;4.10;;;;;;;29.21;37.97;100312.55;104642;1305;61524;-80
2022/08/27 10:18:40;;;;;;;9.80;4.00;;;;;;;29.20;38.00;100316.59;104646;1308;61407;-82
2022/08/27 10:21:18;;;;;;;10.50;3.70;;;;;;;29.20;37.87;100313.36;104614;1307;73851;-82
2022/08/27 10:23:50;;;;;;;10.30;3.80;;;;;;;29.21;38.02;100317.10;104607;1308;74772;-81
2022/08/27 10:26:24;;;;;;;10.30;3.90;;;;;;;29.21;37.78;100312.04;104631;1307;61146;-83
2022/08/27 10:29:00;;;;;;;11.40;4.40;;;;;;;29.21;37.89;100313.13;104688;1305;61725;-83
2022/08/27 10:31:51;;;;;;;8.00;3.90;;;;;;;29.21;37.86;100315.13;104652;1306;72232;-83
2022/08/27 10:34:50;;;;;;;10.90;3.90;;;;;;;29.20;38.08;100314.59;104631;1306;74615;-83
2022/08/27 10:38:20;;;;;;;11.80;4.00;;;;;;;29.20;37.94;100316.09;104437;1308;61188;-82
2022/08/27 10:40:49;;;;;;;13.50;4.10;;;;;;;29.20;37.85;100314.29;104202;1306;61170;-82
2022/08/27 10:43:14;;;;;;;11.80;4.00;;;;;;;29.21;37.86;100317.27;104765;1305;74057;-82
2022/08/27 10:45:45;;;;;;;10.80;3.90;;;;;;;29.21;37.92;100314.56;104617;1306;61331;-84
2022/08/27 10:48:23;;;;;;;9.90;3.70;;;;;;;29.21;37.86;100315.60;104794;1305;61428;-82
2022/08/27 10:51:21;;;;;;;7.60;3.70;;;;;;;29.21;37.78;100319.20;104775;1305;61087;-84
2022/08/27 10:54:28;;;;;;;10.30;4.00;;;;;;;29.21;37.82;100315.44;104484;1306;73873;-82
2022/08/27 10:57:08;;;;;;;9.60;4.10;;;;;;;29.20;37.79;100316.77;104574;1306;76570;-80
2022/08/27 11:00:01;;;;;;;9.00;3.70;;;;;;;29.21;37.81;100316.02;104595;1308;61625;-84
2022/08/27 11:02:42;;;;;;;10.20;3.60;;;;;;;29.21;37.91;100313.27;104773;1305;61445;-82
2022/08/27 11:05:23;;;;;;;9.00;3.70;;;;;;;29.21;37.75;100312.41;104641;1305;72694;-83
2022/08/27 11:07:57;;;;;;;11.10;3.40;;;;;;;29.21;37.84;100311.09;104641;1305;74628;-82
2022/08/27 11:10:26;;;;;;;12.40;4.30;;;;;;;29.21;37.73;100308.00;104640;1306;61183;-84
2022/08/27 11:13:13;;;;;;;10.80;4.10;;;;;;;29.21;37.89;100309.42;104538;1305;61188;-82
2022/08/27 11:15:44;;;;;;;10.00;4.10;;;;;;;29.21;37.89;100305.86;104618;1306;72999;-82
2022/08/27 11:18:24;;;;;;;7.70;3.70;;;;;;;29.21;37.73;100304.36;104501;1307;75003;-82
2022/08/27 11:20:54;;;;;;;9.50;3.60;;;;;;;29.21;37.93;100300.92;104640;1306;61137;-82
2022/08/27 11:23:39;;;;;;;10.10;3.60;;;;;;;29.22;37.72;100299.64;104617;1305;61348;-83
2022/08/27 11:26:05;;;;;;;9.80;4.20;;;;;;;29.21;37.73;100296.62;104496;1307;73756;-82
2022/08/27 11:28:52;;;;;;;12.00;4.10;;;;;;;29.21;37.72;100300.73;104573;1308;61535;-83